Meteo Giornale » Osservazioni meteo Austria » Vienna-Schwechat

ore: 14:20 - Osservazioni Meteo Vienna-Schwechat
Lat. 48° 7' N Lon. 16° 34' E Alt. 183 metri s.l.m.

nuvoloso Europe/Vienna

14 °C

Nuvoloso

Temp. 24 Ore

1 °C

14 °C

Sud-Est

16.7 Km/h

Dew point 3 °C

Umidità 47 %

Visibilità  10 Km

Il sole sorge alle ore 05:33

Il sole tramonta alle ore 20:07

Data e Ora Cielo e Fenomeni T °C DP °C Um. % Pres. hPa Vis. km Vento km/h
Oggi h: 14:20 nuvoloso Nuvoloso 14 3 47 1018 10 SE 16.7
Oggi h: 13:50 nuvoloso Nuvoloso 14 3 47 1018 10 SE 16.7
Oggi h: 13:20 nuvoloso Nuvoloso 14 3 47 1018 10 S/SE 16.7
Oggi h: 12:50 nuvoloso Nuvoloso 14 3 47 1018 10 SE 14.8
Oggi h: 12:20 poco_nuvoloso Poco Nuvoloso 14 4 50 1019 10 N 11.1
Oggi h: 11:50 poco_nuvoloso Poco Nuvoloso 14 4 50 1019 10 N 9.3
Oggi h: 11:20 poco_nuvoloso Poco Nuvoloso 13 4 54 1019 10 E/SE 13
Oggi h: 10:50 poco_nuvoloso Poco Nuvoloso 12 5 62 1019 10 N 7.4
Oggi h: 10:20 sereno Sereno 11 5 66 1019 10 SE 7.4
Oggi h: 09:50 sereno Sereno 10 5 71 1019 10 N 3.7
Oggi h: 09:20 sereno Sereno 9 5 75 1019 10 N 5.5
Oggi h: 08:50 sereno Sereno 8 4 75 1019 10 N 3.7
Oggi h: 08:20 sereno Sereno 7 3 75 1019 10 N 3.7
Oggi h: 07:50 sereno Sereno 6 3 81 1019 10 N 3.7
Oggi h: 07:20 sereno Sereno 5 1 75 1019 10 N 5.5
Oggi h: 06:50 sereno Sereno 2 1 93 1019 10 N 5.5
Oggi h: 06:20 sereno Sereno 2 1 93 1019 10 N 3.7
Oggi h: 05:50 sereno Sereno 1 0 93 1019 10 N 1.8
Oggi h: 05:20 sereno Sereno 2 1 93 1019 10 N 1.8
Oggi h: 04:50 sereno Sereno 1 1 100 1019 10 S 7.4
Oggi h: 04:20 sereno Sereno 1 0 93 1019 10 S 7.4
Oggi h: 03:50 sereno Sereno 2 1 93 1018 10 S 7.4
Oggi h: 03:20 sereno Sereno 2 1 93 1019 10 S 7.4
Oggi h: 02:50 sereno Sereno 4 2 86 1018 10 N 5.5
Oggi h: 02:20 sereno Sereno 3 2 93 1018 10 S 7.4
Oggi h: 01:50 sereno Sereno 3 1 86 1018 10 N 5.5
Oggi h: 01:20 sereno Sereno 5 2 80 1018 10 S/SO 7.4
Oggi h: 00:50 sereno Sereno 7 2 70 1018 10 O 11.1
Oggi h: 00:20 sereno Sereno 8 3 70 1018 10 O 11.1
Ieri h: 23:50 sereno Sereno 8 3 70 1018 10 O 9.3
Ieri h: 23:20 sereno Sereno 9 3 66 1018 10 O/NO 11.1
Ieri h: 22:50 sereno Sereno 9 3 66 1018 10 O/NO 9.3
Ieri h: 22:20 sereno Sereno 9 3 66 1018 10 O 9.3
Ieri h: 21:50 sereno Sereno 9 3 66 1018 10 O/NO 7.4
Ieri h: 21:20 sereno Sereno 8 3 70 1018 10 NO 7.4
Ieri h: 20:50 sereno Sereno 10 3 61 1018 10 O/NO 14.8
Ieri h: 20:20 sereno Sereno 10 3 61 1018 10 N 5.5
Ieri h: 19:50 sereno Sereno 10 3 61 1018 10 N 1.8
Ieri h: 19:20 sereno Sereno 11 3 57 1017 10 NE 7.4
Ieri h: 18:50 sereno Sereno 12 3 54 1017 10 E/NE 7.4
Ieri h: 17:50 molto_nuvoloso Molto Nuvoloso 11 5 66 1017 10 N/NE 16.7
Ieri h: 17:20 molto_nuvoloso Molto Nuvoloso 12 3 54 1017 10 N 11.1
Ieri h: 16:50 sereno Sereno 12 2 50 1017 10 N/NO 14.8
Ieri h: 16:20 nuvoloso_piovaschi Debole Rovescio di Pioggia 12 4 57 1017 10 N/NO 11.1
Ieri h: 15:50 nuvoloso Nuvoloso 14 3 47 1017 10 N 18.5
Ieri h: 15:20 nuvoloso Nuvoloso 12 3 54 1017 10 N 16.7
Ieri h: 14:50 nuvoloso Nuvoloso 14 3 47 1017 10 N/NO 14.8